Schedule Details


Flight Number: CTN631
Departure: Pula (LDPL) at 06:00
Arrival: Zemunik (LDZD) at 06:35
Route: LOS N606 EBITA

Weather Information
LDPL 220330Z 09006KT 9999 FEW007 11/10 Q1017 NOSIG
LDZD 220330Z 10003KT 050V160 CAVOK 08/07 Q1018 NOSIG
Schedule Frequency

Route Map